sensor_id;sensor_type;location;lat;lon;timestamp;pressure;altitude;pressure_sealevel;temperature;humidity
10470;BME280;5282;47.052;15.458;2023-05-02T00:00:28;97446.97;;;13.00;100.00
10470;BME280;5282;47.052;15.458;2023-05-02T00:02:55;97443.25;;;13.01;100.00
10470;BME280;5282;47.052;15.458;2023-05-02T00:05:23;97444.06;;;13.01;100.00
10470;BME280;5282;47.052;15.458;2023-05-02T00:07:50;97445.28;;;12.99;100.00
10470;BME280;5282;47.052;15.458;2023-05-02T00:10:17;97436.72;;;12.95;100.00
10470;BME280;5282;47.052;15.458;2023-05-02T00:12:44;97443.97;;;12.94;100.00
10470;BME280;5282;47.052;15.458;2023-05-02T00:15:11;97441.47;;;12.93;100.00
10470;BME280;5282;47.052;15.458;2023-05-02T00:17:41;97445.56;;;12.89;100.00
10470;BME280;5282;47.052;15.458;2023-05-02T00:20:10;97444.38;;;12.91;100.00
10470;BME280;5282;47.052;15.458;2023-05-02T00:22:38;97437.66;;;12.87;100.00
10470;BME280;5282;47.052;15.458;2023-05-02T00:25:05;97440.34;;;12.87;100.00
10470;BME280;5282;47.052;15.458;2023-05-02T00:27:32;97432.59;;;12.84;100.00
10470;BME280;5282;47.052;15.458;2023-05-02T00:30:02;97426.94;;;12.79;100.00
10470;BME280;5282;47.052;15.458;2023-05-02T00:32:29;97426.72;;;12.80;100.00
10470;BME280;5282;47.052;15.458;2023-05-02T00:34:57;97426.94;;;12.79;100.00
10470;BME280;5282;47.052;15.458;2023-05-02T00:37:25;97422.19;;;12.81;100.00
10470;BME280;5282;47.052;15.458;2023-05-02T00:39:52;97421.53;;;12.79;100.00
10470;BME280;5282;47.052;15.458;2023-05-02T00:42:21;97421.53;;;12.79;100.00
10470;BME280;5282;47.052;15.458;2023-05-02T00:44:48;97421.63;;;12.71;100.00
10470;BME280;5282;47.052;15.458;2023-05-02T00:47:15;97419.94;;;12.70;100.00
10470;BME280;5282;47.052;15.458;2023-05-02T00:49:43;97420.00;;;12.61;100.00
10470;BME280;5282;47.052;15.458;2023-05-02T00:52:11;97426.53;;;12.67;100.00
10470;BME280;5282;47.052;15.458;2023-05-02T00:54:38;97428.47;;;12.58;100.00
10470;BME280;5282;47.052;15.458;2023-05-02T00:57:05;97421.88;;;12.61;100.00
10470;BME280;5282;47.052;15.458;2023-05-02T00:59:33;97430.78;;;12.61;100.00
10470;BME280;5282;47.052;15.458;2023-05-02T01:02:10;97423.00;;;12.67;100.00
10470;BME280;5282;47.052;15.458;2023-05-02T01:04:42;97419.63;;;12.64;100.00
10470;BME280;5282;47.052;15.458;2023-05-02T01:07:24;97420.00;;;12.61;100.00
10470;BME280;5282;47.052;15.458;2023-05-02T01:10:02;97418.16;;;12.62;100.00
10470;BME280;5282;47.052;15.458;2023-05-02T01:12:39;97420.00;;;12.61;100.00
10470;BME280;5282;47.052;15.458;2023-05-02T01:15:11;97412.28;;;12.58;100.00
10470;BME280;5282;47.052;15.458;2023-05-02T01:17:41;97417.19;;;12.55;100.00
10470;BME280;5282;47.052;15.458;2023-05-02T01:20:13;97409.94;;;12.55;100.00
10470;BME280;5282;47.052;15.458;2023-05-02T01:22:43;97407.44;;;12.54;100.00
10470;BME280;5282;47.052;15.458;2023-05-02T01:25:18;97403.03;;;12.53;100.00
10470;BME280;5282;47.052;15.458;2023-05-02T01:27:52;97412.16;;;12.52;100.00
10470;BME280;5282;47.052;15.458;2023-05-02T01:30:26;97409.53;;;12.43;100.00
10470;BME280;5282;47.052;15.458;2023-05-02T01:32:56;97402.63;;;12.41;100.00
10470;BME280;5282;47.052;15.458;2023-05-02T01:35:25;97404.66;;;12.39;100.00
10470;BME280;5282;47.052;15.458;2023-05-02T01:37:53;97393.50;;;12.42;100.00
10470;BME280;5282;47.052;15.458;2023-05-02T01:40:22;97403.75;;;12.46;100.00
10470;BME280;5282;47.052;15.458;2023-05-02T01:42:51;97408.34;;;12.46;100.00
10470;BME280;5282;47.052;15.458;2023-05-02T01:45:20;97400.91;;;12.48;100.00
10470;BME280;5282;47.052;15.458;2023-05-02T01:47:50;97400.59;;;12.43;100.00
10470;BME280;5282;47.052;15.458;2023-05-02T01:50:21;97401.06;;;12.46;100.00
10470;BME280;5282;47.052;15.458;2023-05-02T01:52:51;97386.44;;;12.41;100.00
10470;BME280;5282;47.052;15.458;2023-05-02T01:55:20;97392.84;;;12.40;100.00
10470;BME280;5282;47.052;15.458;2023-05-02T01:57:49;97388.78;;;12.44;100.00
10470;BME280;5282;47.052;15.458;2023-05-02T02:00:19;97398.09;;;12.41;100.00
10470;BME280;5282;47.052;15.458;2023-05-02T02:02:51;97389.59;;;12.44;100.00
10470;BME280;5282;47.052;15.458;2023-05-02T02:05:21;97391.84;;;12.41;100.00
10470;BME280;5282;47.052;15.458;2023-05-02T02:07:49;97389.50;;;12.38;100.00
10470;BME280;5282;47.052;15.458;2023-05-02T02:10:16;97386.78;;;12.38;100.00
10470;BME280;5282;47.052;15.458;2023-05-02T02:12:48;97384.47;;;12.34;100.00
10470;BME280;5282;47.052;15.458;2023-05-02T02:15:20;97395.94;;;12.37;100.00
10470;BME280;5282;47.052;15.458;2023-05-02T02:17:57;97392.38;;;12.36;100.00
10470;BME280;5282;47.052;15.458;2023-05-02T02:20:25;97394.63;;;12.32;100.00
10470;BME280;5282;47.052;15.458;2023-05-02T02:22:55;97393.41;;;12.35;100.00
10470;BME280;5282;47.052;15.458;2023-05-02T02:25:24;97386.78;;;12.38;100.00
10470;BME280;5282;47.052;15.458;2023-05-02T02:27:52;97385.78;;;12.39;100.00
10470;BME280;5282;47.052;15.458;2023-05-02T02:30:19;97389.50;;;12.38;100.00
10470;BME280;5282;47.052;15.458;2023-05-02T02:32:46;97385.59;;;12.40;100.00
10470;BME280;5282;47.052;15.458;2023-05-02T02:35:14;97385.78;;;12.39;100.00
10470;BME280;5282;47.052;15.458;2023-05-02T02:37:46;97392.84;;;12.40;100.00
10470;BME280;5282;47.052;15.458;2023-05-02T02:40:22;97393.25;;;12.37;100.00
10470;BME280;5282;47.052;15.458;2023-05-02T02:43:00;97392.84;;;12.40;100.00
10470;BME280;5282;47.052;15.458;2023-05-02T02:45:33;97386.53;;;12.32;100.00
10470;BME280;5282;47.052;15.458;2023-05-02T02:48:09;97390.53;;;12.37;100.00
10470;BME280;5282;47.052;15.458;2023-05-02T02:50:53;97396.22;;;12.42;100.00
10470;BME280;5282;47.052;15.458;2023-05-02T02:53:31;97395.84;;;12.45;100.00
10470;BME280;5282;47.052;15.458;2023-05-02T02:56:04;97395.50;;;12.48;100.00
10470;BME280;5282;47.052;15.458;2023-05-02T02:58:39;97403.75;;;12.46;100.00
10470;BME280;5282;47.052;15.458;2023-05-02T03:01:12;97402.94;;;12.46;100.00
10470;BME280;5282;47.052;15.458;2023-05-02T03:03:42;97407.22;;;12.40;100.00
10470;BME280;5282;47.052;15.458;2023-05-02T03:06:11;97410.72;;;12.41;100.00
10470;BME280;5282;47.052;15.458;2023-05-02T03:08:38;97409.91;;;12.40;100.00
10470;BME280;5282;47.052;15.458;2023-05-02T03:11:05;97404.97;;;12.44;100.00
10470;BME280;5282;47.052;15.458;2023-05-02T03:13:32;97408.03;;;12.41;100.00
10470;BME280;5282;47.052;15.458;2023-05-02T03:16:30;97404.50;;;12.40;100.00
10470;BME280;5282;47.052;15.458;2023-05-02T03:18:58;97409.06;;;12.40;100.00
10470;BME280;5282;47.052;15.458;2023-05-02T03:21:26;97412.66;;;12.32;100.00
10470;BME280;5282;47.052;15.458;2023-05-02T03:23:57;97419.19;;;12.38;100.00
10470;BME280;5282;47.052;15.458;2023-05-02T03:26:24;97416.31;;;12.39;100.00
10470;BME280;5282;47.052;15.458;2023-05-02T03:28:51;97418.06;;;12.32;100.00
10470;BME280;5282;47.052;15.458;2023-05-02T03:31:18;97419.25;;;12.29;100.00
10470;BME280;5282;47.052;15.458;2023-05-02T03:33:46;97414.34;;;12.33;100.00
10470;BME280;5282;47.052;15.458;2023-05-02T03:36:12;97422.31;;;12.26;100.00
10470;BME280;5282;47.052;15.458;2023-05-02T03:38:41;97423.84;;;12.29;100.00
10470;BME280;5282;47.052;15.458;2023-05-02T03:41:08;97426.59;;;12.21;100.00
10470;BME280;5282;47.052;15.458;2023-05-02T03:43:35;97413.91;;;12.06;100.00
10470;BME280;5282;47.052;15.458;2023-05-02T03:46:06;97429.31;;;11.89;100.00
10470;BME280;5282;47.052;15.458;2023-05-02T03:48:34;97424.97;;;11.80;100.00
10470;BME280;5282;47.052;15.458;2023-05-02T03:51:04;97421.03;;;11.67;100.00
10470;BME280;5282;47.052;15.458;2023-05-02T03:53:34;97423.81;;;11.74;100.00
10470;BME280;5282;47.052;15.458;2023-05-02T03:56:03;97424.22;;;11.71;100.00
10470;BME280;5282;47.052;15.458;2023-05-02T03:58:30;97422.47;;;11.78;100.00
10470;BME280;5282;47.052;15.458;2023-05-02T04:00:58;97422.41;;;11.86;100.00
10470;BME280;5282;47.052;15.458;2023-05-02T04:03:24;97419.72;;;11.86;100.00
10470;BME280;5282;47.052;15.458;2023-05-02T04:05:51;97425.47;;;11.83;100.00
10470;BME280;5282;47.052;15.458;2023-05-02T04:08:18;97423.31;;;11.79;100.00
10470;BME280;5282;47.052;15.458;2023-05-02T04:10:45;97429.06;;;11.76;100.00
10470;BME280;5282;47.052;15.458;2023-05-02T04:13:13;97427.16;;;11.84;100.00
10470;BME280;5282;47.052;15.458;2023-05-02T04:15:40;97427.25;;;11.99;100.00
10470;BME280;5282;47.052;15.458;2023-05-02T04:18:07;97427.94;;;12.01;100.00
10470;BME280;5282;47.052;15.458;2023-05-02T04:20:34;97422.34;;;12.03;100.00
10470;BME280;5282;47.052;15.458;2023-05-02T04:23:01;97426.00;;;12.10;100.00
10470;BME280;5282;47.052;15.458;2023-05-02T04:25:28;97431.63;;;12.00;100.00
10470;BME280;5282;47.052;15.458;2023-05-02T04:27:55;97423.13;;;12.12;100.00
10470;BME280;5282;47.052;15.458;2023-05-02T04:30:23;97424.25;;;12.17;100.00
10470;BME280;5282;47.052;15.458;2023-05-02T04:32:50;97430.28;;;12.19;100.00
10470;BME280;5282;47.052;15.458;2023-05-02T04:35:18;97431.44;;;12.25;100.00
10470;BME280;5282;47.052;15.458;2023-05-02T04:37:45;97436.66;;;12.27;100.00
10470;BME280;5282;47.052;15.458;2023-05-02T04:40:12;97435.47;;;12.29;100.00
10470;BME280;5282;47.052;15.458;2023-05-02T04:42:39;97446.06;;;12.31;100.00
10470;BME280;5282;47.052;15.458;2023-05-02T04:45:07;97456.22;;;12.29;100.00
10470;BME280;5282;47.052;15.458;2023-05-02T04:47:35;97453.69;;;12.27;100.00
10470;BME280;5282;47.052;15.458;2023-05-02T04:50:02;97447.00;;;12.23;100.00
10470;BME280;5282;47.052;15.458;2023-05-02T04:52:29;97457.25;;;11.96;100.00
10470;BME280;5282;47.052;15.458;2023-05-02T04:54:56;97459.56;;;12.08;100.00
10470;BME280;5282;47.052;15.458;2023-05-02T04:57:23;97453.03;;;12.25;100.00
10470;BME280;5282;47.052;15.458;2023-05-02T04:59:50;97459.75;;;12.29;100.00
10470;BME280;5282;47.052;15.458;2023-05-02T05:02:17;97467.84;;;12.29;100.00
10470;BME280;5282;47.052;15.458;2023-05-02T05:04:45;97470.16;;;12.17;100.00
10470;BME280;5282;47.052;15.458;2023-05-02T05:07:12;97474.44;;;12.03;100.00
10470;BME280;5282;47.052;15.458;2023-05-02T05:09:38;97467.34;;;12.02;100.00
10470;BME280;5282;47.052;15.458;2023-05-02T05:12:05;97464.16;;;12.07;100.00
10470;BME280;5282;47.052;15.458;2023-05-02T05:14:32;97455.50;;;12.12;100.00
10470;BME280;5282;47.052;15.458;2023-05-02T05:16:59;97467.81;;;12.14;100.00
10470;BME280;5282;47.052;15.458;2023-05-02T05:19:26;97462.88;;;12.41;100.00
10470;BME280;5282;47.052;15.458;2023-05-02T05:21:54;97462.47;;;12.29;100.00
10470;BME280;5282;47.052;15.458;2023-05-02T05:24:21;97465.94;;;12.15;100.00
10470;BME280;5282;47.052;15.458;2023-05-02T05:26:48;97466.00;;;12.30;100.00
10470;BME280;5282;47.052;15.458;2023-05-02T05:29:16;97466.66;;;12.32;100.00
10470;BME280;5282;47.052;15.458;2023-05-02T05:31:43;97473.56;;;12.34;100.00
10470;BME280;5282;47.052;15.458;2023-05-02T05:34:13;97480.66;;;12.36;100.00
10470;BME280;5282;47.052;15.458;2023-05-02T05:36:40;97484.97;;;12.45;100.00
10470;BME280;5282;47.052;15.458;2023-05-02T05:39:08;97496.91;;;12.50;100.00
10470;BME280;5282;47.052;15.458;2023-05-02T05:41:35;97495.69;;;12.53;100.00
10470;BME280;5282;47.052;15.458;2023-05-02T05:44:03;97502.41;;;12.57;100.00
10470;BME280;5282;47.052;15.458;2023-05-02T05:46:29;97508.16;;;12.54;100.00
10470;BME280;5282;47.052;15.458;2023-05-02T05:48:56;97506.84;;;12.50;100.00
10470;BME280;5282;47.052;15.458;2023-05-02T05:51:23;97506.13;;;12.56;100.00
10470;BME280;5282;47.052;15.458;2023-05-02T05:53:51;97506.97;;;12.57;100.00
10470;BME280;5282;47.052;15.458;2023-05-02T05:56:20;97507.44;;;12.60;100.00
10470;BME280;5282;47.052;15.458;2023-05-02T05:58:47;97506.81;;;12.58;100.00
10470;BME280;5282;47.052;15.458;2023-05-02T06:01:14;97507.09;;;12.63;100.00
10470;BME280;5282;47.052;15.458;2023-05-02T06:03:41;97518.91;;;12.62;100.00
10470;BME280;5282;47.052;15.458;2023-05-02T06:06:08;97525.31;;;12.61;100.00
10470;BME280;5282;47.052;15.458;2023-05-02T06:08:35;97525.72;;;12.58;100.00
10470;BME280;5282;47.052;15.458;2023-05-02T06:11:07;97535.00;;;12.56;100.00
10470;BME280;5282;47.052;15.458;2023-05-02T06:13:36;97534.16;;;12.55;100.00
10470;BME280;5282;47.052;15.458;2023-05-02T06:16:04;97542.72;;;12.59;100.00
10470;BME280;5282;47.052;15.458;2023-05-02T06:18:31;97553.53;;;12.59;100.00
10470;BME280;5282;47.052;15.458;2023-05-02T06:21:02;97546.59;;;12.41;100.00
10470;BME280;5282;47.052;15.458;2023-05-02T06:23:32;97552.22;;;12.31;100.00
10470;BME280;5282;47.052;15.458;2023-05-02T06:25:59;97554.97;;;12.23;100.00
10470;BME280;5282;47.052;15.458;2023-05-02T06:28:26;97553.53;;;12.36;100.00
10470;BME280;5282;47.052;15.458;2023-05-02T06:30:58;97549.91;;;12.20;100.00
10470;BME280;5282;47.052;15.458;2023-05-02T06:33:26;97545.47;;;12.27;100.00
10470;BME280;5282;47.052;15.458;2023-05-02T06:35:53;97554.03;;;12.31;100.00
10470;BME280;5282;47.052;15.458;2023-05-02T06:38:21;97550.09;;;12.18;100.00
10470;BME280;5282;47.052;15.458;2023-05-02T06:40:48;97558.41;;;12.09;100.00
10470;BME280;5282;47.052;15.458;2023-05-02T06:43:16;97559.47;;;11.99;100.00
10470;BME280;5282;47.052;15.458;2023-05-02T06:45:43;97562.94;;;12.08;100.00
10470;BME280;5282;47.052;15.458;2023-05-02T06:48:11;97567.47;;;12.16;100.00
10470;BME280;5282;47.052;15.458;2023-05-02T06:50:38;97559.22;;;12.17;100.00
10470;BME280;5282;47.052;15.458;2023-05-02T06:53:05;97552.81;;;12.18;100.00
10470;BME280;5282;47.052;15.458;2023-05-02T06:55:32;97547.88;;;12.22;100.00
10470;BME280;5282;47.052;15.458;2023-05-02T06:57:59;97547.00;;;12.30;100.00
10470;BME280;5282;47.052;15.458;2023-05-02T07:00:26;97543.50;;;12.44;100.00
10470;BME280;5282;47.052;15.458;2023-05-02T07:02:53;97541.66;;;12.45;100.00
10470;BME280;5282;47.052;15.458;2023-05-02T07:05:22;97544.22;;;12.38;100.00
10470;BME280;5282;47.052;15.458;2023-05-02T07:07:49;97540.56;;;12.31;100.00
10470;BME280;5282;47.052;15.458;2023-05-02T07:10:16;97538.63;;;12.48;100.00
10470;BME280;5282;47.052;15.458;2023-05-02T07:12:43;97548.00;;;12.52;100.00
10470;BME280;5282;47.052;15.458;2023-05-02T07:15:10;97546.75;;;12.40;100.00
10470;BME280;5282;47.052;15.458;2023-05-02T07:17:38;97541.78;;;12.52;100.00
10470;BME280;5282;47.052;15.458;2023-05-02T07:20:07;97547.22;;;12.43;100.00
10470;BME280;5282;47.052;15.458;2023-05-02T07:22:35;97543.63;;;12.51;100.00
10470;BME280;5282;47.052;15.458;2023-05-02T07:25:03;97559.53;;;12.69;100.00
10470;BME280;5282;47.052;15.458;2023-05-02T07:27:30;97564.34;;;12.59;100.00
10470;BME280;5282;47.052;15.458;2023-05-02T07:29:57;97561.03;;;12.72;100.00
10470;BME280;5282;47.052;15.458;2023-05-02T07:32:24;97566.63;;;12.47;100.00
10470;BME280;5282;47.052;15.458;2023-05-02T07:34:51;97570.59;;;12.59;100.00
10470;BME280;5282;47.052;15.458;2023-05-02T07:37:19;97568.50;;;12.70;100.00
10470;BME280;5282;47.052;15.458;2023-05-02T07:39:47;97563.69;;;12.80;100.00
10470;BME280;5282;47.052;15.458;2023-05-02T07:42:14;97576.59;;;12.70;100.00
10470;BME280;5282;47.052;15.458;2023-05-02T07:44:41;97572.22;;;12.69;100.00
10470;BME280;5282;47.052;15.458;2023-05-02T07:47:08;97568.72;;;12.83;100.00
10470;BME280;5282;47.052;15.458;2023-05-02T07:49:35;97561.53;;;12.75;100.00
10470;BME280;5282;47.052;15.458;2023-05-02T07:52:03;97568.06;;;12.81;100.00
10470;BME280;5282;47.052;15.458;2023-05-02T07:54:30;97569.56;;;12.84;100.00
10470;BME280;5282;47.052;15.458;2023-05-02T07:57:00;97569.97;;;12.95;100.00
10470;BME280;5282;47.052;15.458;2023-05-02T07:59:29;97571.53;;;12.90;100.00
10470;BME280;5282;47.052;15.458;2023-05-02T08:01:56;97572.03;;;12.93;100.00
10470;BME280;5282;47.052;15.458;2023-05-02T08:04:23;97567.38;;;13.02;100.00
10470;BME280;5282;47.052;15.458;2023-05-02T08:06:50;97569.97;;;12.95;100.00
10470;BME280;5282;47.052;15.458;2023-05-02T08:09:17;97570.47;;;12.99;100.00
10470;BME280;5282;47.052;15.458;2023-05-02T08:11:44;97573.19;;;13.14;100.00
10470;BME280;5282;47.052;15.458;2023-05-02T08:14:12;97578.25;;;12.94;100.00
10470;BME280;5282;47.052;15.458;2023-05-02T08:16:39;97573.84;;;12.78;100.00
10470;BME280;5282;47.052;15.458;2023-05-02T08:19:06;97574.63;;;12.87;100.00
10470;BME280;5282;47.052;15.458;2023-05-02T08:21:33;97573.06;;;12.92;100.00
10470;BME280;5282;47.052;15.458;2023-05-02T08:24:00;97584.13;;;12.98;100.00
10470;BME280;5282;47.052;15.458;2023-05-02T08:26:27;97585.47;;;13.02;100.00
10470;BME280;5282;47.052;15.458;2023-05-02T08:28:54;97583.34;;;12.89;100.00
10470;BME280;5282;47.052;15.458;2023-05-02T08:31:22;97582.69;;;13.10;100.00
10470;BME280;5282;47.052;15.458;2023-05-02T08:33:49;97590.25;;;13.15;100.00
10470;BME280;5282;47.052;15.458;2023-05-02T08:36:17;97591.00;;;13.23;100.00
10470;BME280;5282;47.052;15.458;2023-05-02T08:38:45;97592.69;;;13.24;100.00
10470;BME280;5282;47.052;15.458;2023-05-02T08:41:13;97589.25;;;13.31;100.00
10470;BME280;5282;47.052;15.458;2023-05-02T08:43:41;97591.63;;;13.49;100.00
10470;BME280;5282;47.052;15.458;2023-05-02T08:46:09;97585.97;;;13.58;100.00
10470;BME280;5282;47.052;15.458;2023-05-02T08:48:39;97585.50;;;13.70;100.00
10470;BME280;5282;47.052;15.458;2023-05-02T08:51:08;97586.81;;;13.74;100.00
10470;BME280;5282;47.052;15.458;2023-05-02T08:53:35;97588.75;;;13.95;100.00
10470;BME280;5282;47.052;15.458;2023-05-02T08:56:06;97596.22;;;14.08;100.00
10470;BME280;5282;47.052;15.458;2023-05-02T08:58:34;97593.75;;;14.28;100.00
10470;BME280;5282;47.052;15.458;2023-05-02T09:01:02;97604.97;;;14.25;100.00
10470;BME280;5282;47.052;15.458;2023-05-02T09:03:35;97602.34;;;14.32;100.00
10470;BME280;5282;47.052;15.458;2023-05-02T09:06:06;97598.59;;;14.33;100.00
10470;BME280;5282;47.052;15.458;2023-05-02T09:08:33;97601.59;;;14.38;100.00
10470;BME280;5282;47.052;15.458;2023-05-02T09:11:00;97603.34;;;14.46;100.00
10470;BME280;5282;47.052;15.458;2023-05-02T09:13:30;97605.63;;;14.64;100.00
10470;BME280;5282;47.052;15.458;2023-05-02T09:16:00;97620.38;;;14.61;100.00
10470;BME280;5282;47.052;15.458;2023-05-02T09:18:28;97620.50;;;14.68;100.00
10470;BME280;5282;47.052;15.458;2023-05-02T09:20:57;97611.66;;;14.44;100.00
10470;BME280;5282;47.052;15.458;2023-05-02T09:23:35;97612.91;;;14.27;100.00
10470;BME280;5282;47.052;15.458;2023-05-02T09:26:15;97611.88;;;14.28;100.00
10470;BME280;5282;47.052;15.458;2023-05-02T09:28:44;97613.06;;;14.40;100.00
10470;BME280;5282;47.052;15.458;2023-05-02T09:31:13;97610.69;;;14.52;100.00
10470;BME280;5282;47.052;15.458;2023-05-02T09:33:43;97608.84;;;14.53;100.00
10470;BME280;5282;47.052;15.458;2023-05-02T09:36:11;97611.06;;;14.64;100.00
10470;BME280;5282;47.052;15.458;2023-05-02T09:38:42;97612.00;;;14.56;100.00
10470;BME280;5282;47.052;15.458;2023-05-02T09:41:09;97606.00;;;14.61;100.00
10470;BME280;5282;47.052;15.458;2023-05-02T09:43:37;97599.41;;;14.48;100.00
10470;BME280;5282;47.052;15.458;2023-05-02T09:46:06;97596.41;;;14.58;100.00
10470;BME280;5282;47.052;15.458;2023-05-02T09:48:51;97609.75;;;14.60;100.00
10470;BME280;5282;47.052;15.458;2023-05-02T09:51:19;97603.66;;;14.73;100.00
10470;BME280;5282;47.052;15.458;2023-05-02T09:53:48;97607.22;;;14.73;100.00
10470;BME280;5282;47.052;15.458;2023-05-02T09:56:16;97604.75;;;14.78;100.00
10470;BME280;5282;47.052;15.458;2023-05-02T09:58:43;97607.94;;;14.82;100.00
10470;BME280;5282;47.052;15.458;2023-05-02T10:01:13;97602.59;;;14.89;100.00
10470;BME280;5282;47.052;15.458;2023-05-02T10:03:40;97612.38;;;14.90;100.00
10470;BME280;5282;47.052;15.458;2023-05-02T10:06:10;97595.63;;;15.01;100.00
10470;BME280;5282;47.052;15.458;2023-05-02T10:08:38;97600.25;;;15.07;100.00
10470;BME280;5282;47.052;15.458;2023-05-02T10:11:07;97598.84;;;15.11;100.00
10470;BME280;5282;47.052;15.458;2023-05-02T10:13:37;97604.31;;;15.18;100.00
10470;BME280;5282;47.052;15.458;2023-05-02T10:16:11;97603.16;;;15.06;100.00
10470;BME280;5282;47.052;15.458;2023-05-02T10:18:41;97600.09;;;15.16;100.00
10470;BME280;5282;47.052;15.458;2023-05-02T10:21:10;97597.50;;;15.29;100.00
10470;BME280;5282;47.052;15.458;2023-05-02T10:23:40;97602.03;;;15.22;100.00
10470;BME280;5282;47.052;15.458;2023-05-02T10:26:09;97602.00;;;15.15;100.00
10470;BME280;5282;47.052;15.458;2023-05-02T10:28:37;97598.75;;;15.26;100.00
10470;BME280;5282;47.052;15.458;2023-05-02T10:31:05;97588.34;;;15.30;100.00
10470;BME280;5282;47.052;15.458;2023-05-02T10:33:37;97596.06;;;15.05;100.00
10470;BME280;5282;47.052;15.458;2023-05-02T10:36:08;97593.00;;;14.93;100.00
10470;BME280;5282;47.052;15.458;2023-05-02T10:38:35;97594.50;;;14.95;100.00
10470;BME280;5282;47.052;15.458;2023-05-02T10:41:09;97601.22;;;15.00;100.00
10470;BME280;5282;47.052;15.458;2023-05-02T10:43:38;97604.00;;;15.06;100.00
10470;BME280;5282;47.052;15.458;2023-05-02T10:46:29;97601.13;;;15.15;100.00
10470;BME280;5282;47.052;15.458;2023-05-02T10:49:01;97599.78;;;15.25;100.00
10470;BME280;5282;47.052;15.458;2023-05-02T10:51:30;97609.47;;;15.13;100.00
10470;BME280;5282;47.052;15.458;2023-05-02T10:54:19;97615.47;;;15.08;100.00
10470;BME280;5282;47.052;15.458;2023-05-02T10:57:04;97610.50;;;15.12;100.00
10470;BME280;5282;47.052;15.458;2023-05-02T10:59:33;97612.91;;;15.00;100.00
10470;BME280;5282;47.052;15.458;2023-05-02T11:02:00;97612.31;;;14.83;100.00
10470;BME280;5282;47.052;15.458;2023-05-02T11:04:58;97610.66;;;14.82;100.00
10470;BME280;5282;47.052;15.458;2023-05-02T11:07:26;97612.13;;;14.85;100.00
10470;BME280;5282;47.052;15.458;2023-05-02T11:09:53;97608.00;;;14.89;100.00
10470;BME280;5282;47.052;15.458;2023-05-02T11:12:45;97605.59;;;14.79;100.00
10470;BME280;5282;47.052;15.458;2023-05-02T11:15:13;97616.28;;;14.65;100.00
10470;BME280;5282;47.052;15.458;2023-05-02T11:17:59;97610.50;;;14.69;100.00
10470;BME280;5282;47.052;15.458;2023-05-02T11:20:27;97618.50;;;14.77;100.00
10470;BME280;5282;47.052;15.458;2023-05-02T11:22:58;97618.63;;;14.69;100.00
10470;BME280;5282;47.052;15.458;2023-05-02T11:25:37;97615.78;;;14.77;100.00
10470;BME280;5282;47.052;15.458;2023-05-02T11:28:38;97619.81;;;14.81;100.00
10470;BME280;5282;47.052;15.458;2023-05-02T11:31:05;97617.09;;;14.81;100.00
10470;BME280;5282;47.052;15.458;2023-05-02T11:33:33;97618.31;;;14.78;100.00
10470;BME280;5282;47.052;15.458;2023-05-02T11:35:59;97621.50;;;14.67;100.00
10470;BME280;5282;47.052;15.458;2023-05-02T11:38:35;97627.69;;;14.61;100.00
10470;BME280;5282;47.052;15.458;2023-05-02T11:41:02;97622.19;;;14.54;100.00
10470;BME280;5282;47.052;15.458;2023-05-02T11:43:31;97626.53;;;14.33;100.00
10470;BME280;5282;47.052;15.458;2023-05-02T11:45:59;97630.88;;;14.49;100.00
10470;BME280;5282;47.052;15.458;2023-05-02T11:48:27;97628.63;;;14.68;100.00
10470;BME280;5282;47.052;15.458;2023-05-02T11:50:56;97629.00;;;14.65;100.00
10470;BME280;5282;47.052;15.458;2023-05-02T11:53:24;97630.44;;;14.83;100.00
10470;BME280;5282;47.052;15.458;2023-05-02T11:55:54;97629.63;;;14.82;100.00
10470;BME280;5282;47.052;15.458;2023-05-02T11:58:23;97636.44;;;14.78;100.00
10470;BME280;5282;47.052;15.458;2023-05-02T12:00:52;97632.50;;;14.80;100.00
10470;BME280;5282;47.052;15.458;2023-05-02T12:03:26;97640.19;;;14.62;100.00
10470;BME280;5282;47.052;15.458;2023-05-02T12:05:54;97644.44;;;14.49;100.00
10470;BME280;5282;47.052;15.458;2023-05-02T12:08:23;97643.16;;;14.30;100.00
10470;BME280;5282;47.052;15.458;2023-05-02T12:10:51;97650.16;;;14.25;100.00
10470;BME280;5282;47.052;15.458;2023-05-02T12:13:20;97643.16;;;14.30;100.00
10470;BME280;5282;47.052;15.458;2023-05-02T12:15:48;97647.09;;;14.13;100.00
10470;BME280;5282;47.052;15.458;2023-05-02T12:18:18;97651.50;;;14.14;100.00
10470;BME280;5282;47.052;15.458;2023-05-02T12:20:45;97649.69;;;14.21;100.00
10470;BME280;5282;47.052;15.458;2023-05-02T12:23:13;97655.31;;;14.04;100.00
10470;BME280;5282;47.052;15.458;2023-05-02T12:25:40;97648.22;;;14.18;100.00
10470;BME280;5282;47.052;15.458;2023-05-02T12:28:08;97658.38;;;14.16;100.00
10470;BME280;5282;47.052;15.458;2023-05-02T12:30:37;97659.13;;;14.10;100.00
10470;BME280;5282;47.052;15.458;2023-05-02T12:33:05;97661.66;;;13.97;100.00
10470;BME280;5282;47.052;15.458;2023-05-02T12:35:34;97661.19;;;13.93;100.00
10470;BME280;5282;47.052;15.458;2023-05-02T12:38:09;97661.00;;;13.95;100.00
10470;BME280;5282;47.052;15.458;2023-05-02T12:40:38;97661.72;;;13.73;100.00
10470;BME280;5282;47.052;15.458;2023-05-02T12:43:05;97675.22;;;13.44;100.00
10470;BME280;5282;47.052;15.458;2023-05-02T12:45:35;97682.41;;;13.51;100.00
10470;BME280;5282;47.052;15.458;2023-05-02T12:48:17;97681.09;;;13.47;100.00
10470;BME280;5282;47.052;15.458;2023-05-02T12:50:46;97688.88;;;13.42;100.00
10470;BME280;5282;47.052;15.458;2023-05-02T12:53:12;97700.91;;;13.39;100.00
10470;BME280;5282;47.052;15.458;2023-05-02T12:55:40;97701.78;;;13.32;100.00
10470;BME280;5282;47.052;15.458;2023-05-02T12:58:07;97698.06;;;13.33;100.00
10470;BME280;5282;47.052;15.458;2023-05-02T13:00:36;97698.38;;;13.38;100.00